createdAt,value
2023-04-07T00:01:43.938Z,10.90
2023-04-07T00:04:28.880Z,10.25
2023-04-07T00:07:14.109Z,9.85
2023-04-07T00:09:59.167Z,7.53
2023-04-07T00:12:44.269Z,10.98
2023-04-07T00:15:29.071Z,9.65
2023-04-07T00:18:14.191Z,9.30
2023-04-07T00:20:59.014Z,11.45
2023-04-07T00:23:44.377Z,9.38
2023-04-07T00:26:30.989Z,10.70
2023-04-07T00:29:16.049Z,11.52
2023-04-07T00:32:00.995Z,12.85
2023-04-07T00:34:45.980Z,11.75
2023-04-07T00:37:30.895Z,11.75
2023-04-07T00:40:16.975Z,12.38
2023-04-07T00:43:01.865Z,11.18
2023-04-07T00:45:46.959Z,10.75
2023-04-07T00:48:32.066Z,15.38
2023-04-07T00:51:20.632Z,10.68
2023-04-07T00:54:05.748Z,13.18
2023-04-07T00:56:50.618Z,12.32
2023-04-07T00:59:35.714Z,13.45
2023-04-07T01:02:38.288Z,15.15
2023-04-07T01:05:38.422Z,18.02
2023-04-07T01:08:47.485Z,13.80
2023-04-07T01:11:42.101Z,13.52
2023-04-07T01:14:36.055Z,12.55
2023-04-07T01:17:35.818Z,13.77
2023-04-07T01:20:26.258Z,13.38
2023-04-07T01:23:27.167Z,11.63
2023-04-07T01:26:11.755Z,11.80
2023-04-07T01:29:34.052Z,11.80
2023-04-07T01:32:23.509Z,15.13
2023-04-07T01:35:13.241Z,12.23
2023-04-07T01:37:59.817Z,13.40
2023-04-07T01:40:47.382Z,13.18
2023-04-07T01:43:32.331Z,13.90
2023-04-07T01:46:17.146Z,10.55
2023-04-07T01:49:02.859Z,9.57
2023-04-07T01:51:49.942Z,9.27
2023-04-07T01:54:35.183Z,12.30
2023-04-07T01:57:20.324Z,12.68
2023-04-07T02:00:59.312Z,45.50
2023-04-07T02:04:12.262Z,48.35
2023-04-07T02:07:10.937Z,34.75
2023-04-07T02:10:05.857Z,20.83
2023-04-07T02:12:52.414Z,11.80
2023-04-07T02:15:40.589Z,12.27
2023-04-07T02:18:27.509Z,11.75
2023-04-07T02:21:15.146Z,11.63
2023-04-07T02:24:06.784Z,11.63
2023-04-07T02:26:51.360Z,8.93
2023-04-07T02:29:36.039Z,10.55
2023-04-07T02:32:21.007Z,9.73
2023-04-07T02:35:06.166Z,10.27
2023-04-07T02:37:53.243Z,10.55
2023-04-07T02:40:38.049Z,11.55
2023-04-07T02:43:23.198Z,9.60
2023-04-07T02:46:09.273Z,12.38
2023-04-07T02:48:54.369Z,11.48
2023-04-07T02:51:39.278Z,9.48
2023-04-07T02:54:24.068Z,13.13
2023-04-07T02:57:09.249Z,12.40
2023-04-07T02:59:56.317Z,13.32
2023-04-07T03:02:42.475Z,15.07
2023-04-07T03:05:27.549Z,10.73
2023-04-07T03:08:13.163Z,10.38
2023-04-07T03:10:58.705Z,10.30
2023-04-07T03:13:46.693Z,9.75
2023-04-07T03:16:32.582Z,8.50
2023-04-07T03:19:25.237Z,8.60
2023-04-07T03:22:10.928Z,8.57
2023-04-07T03:25:03.621Z,8.82
2023-04-07T03:27:48.300Z,9.20
2023-04-07T03:30:33.830Z,6.68
2023-04-07T03:33:18.892Z,7.68
2023-04-07T03:36:04.285Z,7.15
2023-04-07T03:38:49.689Z,10.05
2023-04-07T03:41:36.327Z,9.88
2023-04-07T03:44:21.216Z,10.13
2023-04-07T03:47:05.867Z,9.27
2023-04-07T03:49:52.235Z,12.45
2023-04-07T03:52:39.546Z,10.25
2023-04-07T03:55:36.297Z,10.27
2023-04-07T03:58:28.441Z,13.52
2023-04-07T04:01:15.000Z,11.02
2023-04-07T04:04:02.552Z,11.55
2023-04-07T04:06:49.042Z,10.85
2023-04-07T04:09:49.896Z,11.85
2023-04-07T04:12:36.045Z,13.15
2023-04-07T04:15:26.496Z,13.57
2023-04-07T04:18:11.690Z,13.30
2023-04-07T04:20:57.841Z,13.90
2023-04-07T04:23:42.691Z,11.27
2023-04-07T04:26:29.183Z,12.95
2023-04-07T04:29:18.321Z,14.32
2023-04-07T04:32:04.102Z,11.63
2023-04-07T04:34:49.358Z,13.43
2023-04-07T04:37:34.324Z,11.90
2023-04-07T04:40:20.314Z,12.95
2023-04-07T04:43:08.935Z,12.20
2023-04-07T04:45:56.389Z,9.90
2023-04-07T04:48:44.236Z,13.13
2023-04-07T04:51:29.563Z,10.20
2023-04-07T04:54:20.521Z,11.05
2023-04-07T04:57:05.513Z,10.70
2023-04-07T04:59:51.809Z,11.68
2023-04-07T05:02:37.200Z,11.60
2023-04-07T05:05:24.164Z,11.32
2023-04-07T05:08:11.085Z,11.07
2023-04-07T05:10:57.488Z,8.90
2023-04-07T05:13:44.350Z,10.45
2023-04-07T05:16:29.358Z,9.63
2023-04-07T05:19:14.879Z,9.80
2023-04-07T05:21:59.834Z,10.80
2023-04-07T05:24:45.554Z,12.02
2023-04-07T05:27:30.430Z,13.30
2023-04-07T05:30:20.529Z,12.07
2023-04-07T05:33:05.390Z,14.63
2023-04-07T05:35:58.427Z,13.10
2023-04-07T05:38:43.208Z,14.48
2023-04-07T05:41:32.193Z,13.98
2023-04-07T05:44:17.768Z,12.38
2023-04-07T05:47:08.218Z,10.70
2023-04-07T05:49:54.760Z,14.50
2023-04-07T05:52:39.630Z,14.95
2023-04-07T05:55:36.231Z,14.13
2023-04-07T05:58:22.324Z,12.95
2023-04-07T06:01:10.447Z,13.95
2023-04-07T06:03:55.374Z,15.00
2023-04-07T06:06:43.036Z,14.93
2023-04-07T06:09:27.800Z,14.73
2023-04-07T06:14:57.506Z,13.70
2023-04-07T06:17:44.931Z,17.70
2023-04-07T06:20:30.641Z,16.02
2023-04-07T06:23:16.364Z,18.10
2023-04-07T06:26:01.371Z,19.38
2023-04-07T06:28:47.875Z,18.10
2023-04-07T06:31:32.812Z,16.85
2023-04-07T06:34:17.874Z,16.15
2023-04-07T06:37:04.758Z,17.40
2023-04-07T06:39:50.938Z,15.70
2023-04-07T06:42:36.068Z,16.13
2023-04-07T06:45:29.909Z,14.85
2023-04-07T06:48:15.010Z,11.32
2023-04-07T06:51:00.436Z,9.43
2023-04-07T06:53:48.020Z,9.35
2023-04-07T06:56:33.233Z,8.13
2023-04-07T06:59:20.676Z,7.50
2023-04-07T07:02:07.036Z,7.32
2023-04-07T07:04:51.703Z,6.30
2023-04-07T07:07:37.109Z,6.38
2023-04-07T07:10:22.170Z,6.55
2023-04-07T07:13:07.188Z,6.57
2023-04-07T07:18:36.727Z,7.13
2023-04-07T07:21:21.745Z,6.72
2023-04-07T07:24:06.667Z,7.13
2023-04-07T07:26:51.505Z,7.25
2023-04-07T07:29:36.467Z,8.10
2023-04-07T07:32:20.990Z,8.82
2023-04-07T07:35:05.826Z,7.18
2023-04-07T07:37:53.852Z,7.40
2023-04-07T07:40:38.974Z,7.75
2023-04-07T07:43:23.879Z,9.55
2023-04-07T07:46:09.110Z,8.30
2023-04-07T07:48:54.014Z,7.55
2023-04-07T07:51:39.135Z,7.30
2023-04-07T07:54:24.025Z,5.80
2023-04-07T07:57:09.033Z,6.80
2023-04-07T07:59:54.056Z,6.05
2023-04-07T08:02:39.315Z,5.78
2023-04-07T08:05:24.143Z,6.55
2023-04-07T08:08:08.929Z,6.72
2023-04-07T08:10:54.118Z,6.35
2023-04-07T08:13:39.646Z,5.05
2023-04-07T08:16:26.240Z,4.60
2023-04-07T08:19:11.536Z,6.13
2023-04-07T08:21:56.317Z,4.82
2023-04-07T08:27:25.811Z,5.70
2023-04-07T08:30:10.814Z,6.15
2023-04-07T08:32:56.231Z,8.20
2023-04-07T08:35:40.875Z,5.75
2023-04-07T08:38:25.768Z,5.35
2023-04-07T08:41:13.028Z,5.60
2023-04-07T08:43:58.135Z,8.23
2023-04-07T08:46:43.157Z,6.05
2023-04-07T08:49:29.597Z,5.68
2023-04-07T08:52:15.931Z,5.03
2023-04-07T08:55:06.094Z,6.03
2023-04-07T08:57:51.440Z,6.18
2023-04-07T09:00:36.425Z,5.22
2023-04-07T09:03:23.472Z,5.93
2023-04-07T09:06:10.358Z,5.53
2023-04-07T09:08:55.368Z,6.10
2023-04-07T09:11:40.583Z,6.50
2023-04-07T09:14:25.868Z,5.07
2023-04-07T09:17:10.447Z,6.43
2023-04-07T09:20:00.287Z,5.68
2023-04-07T09:22:45.577Z,5.32
2023-04-07T09:25:31.373Z,5.80
2023-04-07T09:28:16.267Z,4.18
2023-04-07T09:31:01.057Z,6.60
2023-04-07T09:33:47.534Z,4.90
2023-04-07T09:36:41.742Z,4.85
2023-04-07T09:39:26.725Z,5.32
2023-04-07T09:42:11.566Z,5.15
2023-04-07T09:44:56.495Z,5.35
2023-04-07T09:47:41.418Z,5.82
2023-04-07T09:50:35.203Z,5.07
2023-04-07T09:53:20.786Z,5.18
2023-04-07T09:56:05.881Z,6.10
2023-04-07T09:58:53.556Z,7.93
2023-04-07T10:01:38.928Z,7.45
2023-04-07T10:04:25.072Z,7.57
2023-04-07T10:07:10.013Z,7.20
2023-04-07T10:09:55.094Z,8.32
2023-04-07T10:12:41.559Z,7.80
2023-04-07T10:15:26.590Z,9.88
2023-04-07T10:18:13.442Z,9.43
2023-04-07T10:21:03.899Z,8.23
2023-04-07T10:26:42.782Z,9.48
2023-04-07T10:29:30.901Z,9.98
2023-04-07T10:32:16.727Z,11.05
2023-04-07T10:35:01.547Z,8.57
2023-04-07T10:38:15.851Z,10.77
2023-04-07T10:41:38.837Z,8.20
2023-04-07T10:44:53.010Z,11.20
2023-04-07T10:48:00.153Z,10.07
2023-04-07T10:51:06.935Z,11.20
2023-04-07T10:54:22.327Z,12.52
2023-04-07T10:57:10.382Z,12.00
2023-04-07T11:00:10.793Z,11.13
2023-04-07T11:02:55.960Z,12.80
2023-04-07T11:05:42.252Z,12.38
2023-04-07T11:08:41.250Z,12.55
2023-04-07T11:11:40.965Z,13.82
2023-04-07T11:14:27.540Z,13.73
2023-04-07T11:17:16.494Z,13.13
2023-04-07T11:20:01.298Z,12.82
2023-04-07T11:22:59.523Z,11.65
2023-04-07T11:25:45.976Z,14.32
2023-04-07T11:28:31.116Z,14.45
2023-04-07T11:31:30.653Z,15.63
2023-04-07T11:34:15.330Z,16.42
2023-04-07T11:37:24.940Z,15.18
2023-04-07T11:40:10.853Z,13.93
2023-04-07T11:42:56.459Z,16.08
2023-04-07T11:45:41.926Z,14.90
2023-04-07T11:48:30.652Z,18.90
2023-04-07T11:51:22.079Z,15.13
2023-04-07T11:54:07.415Z,20.02
2023-04-07T11:56:54.945Z,17.17
2023-04-07T11:59:40.845Z,13.98
2023-04-07T12:02:35.470Z,20.50
2023-04-07T12:05:20.388Z,15.38
2023-04-07T12:08:05.919Z,17.80
2023-04-07T12:11:03.957Z,16.10
2023-04-07T12:13:48.564Z,22.58
2023-04-07T12:16:38.527Z,16.05
2023-04-07T12:19:27.613Z,15.35
2023-04-07T12:22:12.339Z,16.48
2023-04-07T12:27:43.742Z,17.48
2023-04-07T12:30:28.962Z,22.85
2023-04-07T12:33:13.835Z,16.08
2023-04-07T12:35:58.943Z,15.57
2023-04-07T12:38:44.092Z,19.35
2023-04-07T12:41:29.023Z,19.15
2023-04-07T12:44:15.058Z,16.92
2023-04-07T12:47:00.126Z,16.95
2023-04-07T12:49:44.824Z,19.05
2023-04-07T12:55:13.945Z,19.85
2023-04-07T12:57:59.850Z,19.85
2023-04-07T13:00:47.131Z,19.80
2023-04-07T13:03:32.143Z,20.45
2023-04-07T13:06:17.031Z,20.58
2023-04-07T13:09:02.018Z,23.17
2023-04-07T13:11:46.867Z,21.02
2023-04-07T13:14:31.839Z,22.25
2023-04-07T13:17:18.034Z,20.85
2023-04-07T13:20:03.900Z,21.33
2023-04-07T13:22:52.057Z,20.27
2023-04-07T13:25:48.267Z,17.83
2023-04-07T13:28:33.382Z,22.95
2023-04-07T13:31:18.531Z,19.17
2023-04-07T13:34:03.421Z,22.30
2023-04-07T13:36:48.571Z,25.33
2023-04-07T13:39:33.566Z,19.95
2023-04-07T13:42:20.247Z,20.20
2023-04-07T13:45:05.232Z,17.83
2023-04-07T13:47:50.083Z,18.85
2023-04-07T13:50:36.681Z,20.10
2023-04-07T13:53:22.443Z,21.85
2023-04-07T13:56:09.013Z,19.52
2023-04-07T13:58:54.300Z,21.20
2023-04-07T14:01:39.169Z,24.05
2023-04-07T14:04:23.884Z,36.55
2023-04-07T14:07:09.208Z,31.70
2023-04-07T14:09:54.023Z,31.38
2023-04-07T14:12:38.745Z,24.65
2023-04-07T14:15:23.840Z,25.85
2023-04-07T14:18:09.045Z,22.10
2023-04-07T14:20:54.433Z,23.75
2023-04-07T14:23:39.249Z,21.60
2023-04-07T14:26:24.313Z,21.63
2023-04-07T14:29:09.504Z,21.73
2023-04-07T14:31:54.251Z,20.55
2023-04-07T14:34:39.168Z,22.52
2023-04-07T14:37:25.745Z,24.17
2023-04-07T14:40:11.011Z,24.02
2023-04-07T14:45:45.556Z,24.50
2023-04-07T14:48:30.564Z,21.75
2023-04-07T14:51:15.373Z,22.30
2023-04-07T14:54:00.098Z,23.27
2023-04-07T14:56:44.965Z,25.58
2023-04-07T14:59:29.858Z,24.83
2023-04-07T15:02:14.968Z,22.48
2023-04-07T15:04:59.706Z,22.70
2023-04-07T15:07:46.719Z,23.08
2023-04-07T15:10:34.882Z,24.55
2023-04-07T15:13:20.172Z,22.50
2023-04-07T15:16:13.969Z,20.00
2023-04-07T15:18:59.165Z,21.42
2023-04-07T15:21:43.876Z,22.83
2023-04-07T15:24:29.133Z,22.90
2023-04-07T15:27:14.132Z,21.63
2023-04-07T15:29:59.995Z,22.35
2023-04-07T15:33:03.737Z,20.70
2023-04-07T15:35:48.493Z,20.75
2023-04-07T15:38:34.300Z,20.15
2023-04-07T15:41:19.137Z,18.05
2023-04-07T15:44:04.129Z,21.60
2023-04-07T15:46:49.277Z,19.98
2023-04-07T15:49:36.706Z,16.65
2023-04-07T15:52:21.576Z,20.55
2023-04-07T15:55:06.658Z,20.45
2023-04-07T15:57:52.584Z,19.15
2023-04-07T16:00:38.530Z,18.05
2023-04-07T16:03:23.181Z,19.75
2023-04-07T16:06:08.202Z,19.65
2023-04-07T16:08:52.959Z,19.58
2023-04-07T16:11:37.937Z,18.15
2023-04-07T16:14:22.954Z,20.20
2023-04-07T16:17:08.060Z,18.90
2023-04-07T16:19:53.126Z,19.50
2023-04-07T16:22:38.032Z,20.42
2023-04-07T16:25:22.972Z,19.13
2023-04-07T16:28:08.109Z,21.48
2023-04-07T16:30:53.088Z,20.77
2023-04-07T16:33:38.588Z,23.08
2023-04-07T16:36:23.513Z,24.85
2023-04-07T16:39:08.492Z,22.77
2023-04-07T16:41:53.461Z,25.13
2023-04-07T16:44:38.498Z,27.52
2023-04-07T16:47:24.237Z,23.90
2023-04-07T16:50:09.558Z,24.40
2023-04-07T16:52:56.897Z,24.65
2023-04-07T16:55:41.967Z,23.98
2023-04-07T16:58:27.257Z,24.48
2023-04-07T17:01:11.942Z,23.98
2023-04-07T17:03:56.971Z,25.67
2023-04-07T17:06:41.747Z,25.70
2023-04-07T17:09:26.651Z,25.63
2023-04-07T17:12:13.026Z,29.13
2023-04-07T17:14:57.669Z,28.90
2023-04-07T17:17:42.686Z,28.10
2023-04-07T17:20:27.555Z,30.50
2023-04-07T17:25:56.857Z,27.98
2023-04-07T17:28:41.809Z,29.80
2023-04-07T17:31:26.572Z,33.33
2023-04-07T17:34:11.582Z,31.23
2023-04-07T17:36:56.457Z,45.10
2023-04-07T17:39:41.454Z,40.83
2023-04-07T17:42:26.478Z,35.08
2023-04-07T17:45:12.047Z,40.75
2023-04-07T17:47:57.022Z,34.58
2023-04-07T17:50:42.380Z,28.38
2023-04-07T17:53:27.930Z,29.13
2023-04-07T17:56:13.021Z,27.63
2023-04-07T17:58:57.911Z,25.70
2023-04-07T18:01:42.968Z,26.90
2023-04-07T18:04:29.780Z,24.50
2023-04-07T18:07:14.850Z,23.58
2023-04-07T18:10:00.682Z,26.17
2023-04-07T18:12:45.398Z,23.88
2023-04-07T18:15:30.834Z,26.40
2023-04-07T18:18:15.485Z,28.25
2023-04-07T18:21:00.566Z,26.75
2023-04-07T18:23:45.764Z,24.05
2023-04-07T18:26:31.259Z,27.88
2023-04-07T18:29:15.721Z,28.15
2023-04-07T18:32:00.775Z,27.60
2023-04-07T18:34:47.281Z,31.20
2023-04-07T18:37:32.531Z,27.00
2023-04-07T18:40:17.287Z,28.23
2023-04-07T18:43:02.382Z,28.75
2023-04-07T18:45:47.203Z,27.27
2023-04-07T18:48:32.191Z,28.27
2023-04-07T18:51:17.133Z,29.13
2023-04-07T18:54:02.457Z,26.85
2023-04-07T18:56:47.620Z,27.75
2023-04-07T18:59:32.702Z,31.10
2023-04-07T19:02:17.571Z,34.60
2023-04-07T19:05:03.089Z,37.95
2023-04-07T19:07:47.702Z,38.88
2023-04-07T19:10:32.645Z,44.90
2023-04-07T19:13:18.383Z,47.28
2023-04-07T19:16:03.317Z,44.15
2023-04-07T19:18:48.127Z,45.22
2023-04-07T19:21:33.147Z,44.03
2023-04-07T19:24:18.139Z,46.10
2023-04-07T19:27:03.621Z,42.15
2023-04-07T19:29:48.437Z,38.60
2023-04-07T19:32:33.341Z,41.65
2023-04-07T19:35:18.378Z,44.55
2023-04-07T19:38:04.743Z,43.78
2023-04-07T19:40:49.649Z,39.35
2023-04-07T19:43:34.830Z,41.58
2023-04-07T19:46:20.009Z,42.50
2023-04-07T19:49:04.847Z,40.42
2023-04-07T19:51:52.179Z,43.15
2023-04-07T19:54:36.828Z,50.83
2023-04-07T19:57:22.040Z,44.80
2023-04-07T20:00:08.502Z,39.80
2023-04-07T20:02:53.443Z,39.40
2023-04-07T20:08:22.604Z,37.33
2023-04-07T20:11:10.801Z,33.95
2023-04-07T20:13:55.555Z,40.55
2023-04-07T20:16:40.794Z,40.47
2023-04-07T20:19:25.447Z,43.45
2023-04-07T20:22:10.898Z,45.80
2023-04-07T20:24:55.808Z,44.42
2023-04-07T20:27:40.827Z,46.20
2023-04-07T20:30:26.272Z,42.55
2023-04-07T20:33:11.188Z,41.63
2023-04-07T20:35:56.383Z,44.10
2023-04-07T20:38:43.993Z,45.33
2023-04-07T20:41:28.712Z,39.05
2023-04-07T20:44:13.291Z,50.63
2023-04-07T20:49:43.187Z,55.67
2023-04-07T20:52:28.686Z,50.40
2023-04-07T20:55:13.603Z,58.17
2023-04-07T20:57:58.247Z,62.78
2023-04-07T21:00:43.706Z,60.85
2023-04-07T21:03:30.162Z,59.75
2023-04-07T21:06:14.971Z,55.15
2023-04-07T21:09:00.734Z,58.00
2023-04-07T21:11:45.387Z,51.70
2023-04-07T21:14:31.483Z,57.47
2023-04-07T21:17:16.452Z,51.17
2023-04-07T21:20:00.985Z,52.47
2023-04-07T21:22:46.313Z,53.88
2023-04-07T21:28:15.709Z,49.80
2023-04-07T21:31:00.617Z,49.63
2023-04-07T21:33:45.931Z,48.10
2023-04-07T21:36:31.443Z,48.30
2023-04-07T21:39:16.481Z,49.05
2023-04-07T21:42:01.781Z,44.17
2023-04-07T21:44:46.733Z,46.28
2023-04-07T21:47:31.434Z,40.03
2023-04-07T21:53:01.085Z,39.92
2023-04-07T21:58:30.472Z,36.78
2023-04-07T22:01:17.009Z,33.80
2023-04-07T22:04:02.439Z,34.85
2023-04-07T22:06:47.466Z,35.40
2023-04-07T22:09:32.335Z,36.90
2023-04-07T22:12:17.362Z,35.67
2023-04-07T22:15:02.151Z,38.63
2023-04-07T22:17:47.193Z,33.55
2023-04-07T22:23:16.447Z,37.45
2023-04-07T22:26:01.369Z,40.20
2023-04-07T22:28:46.634Z,40.30
2023-04-07T22:31:31.547Z,38.08
2023-04-07T22:37:00.943Z,42.85
2023-04-07T22:42:31.320Z,56.10
2023-04-07T22:48:02.935Z,57.10
2023-04-07T22:50:47.870Z,65.72
2023-04-07T22:53:32.809Z,56.67
2023-04-07T22:56:18.639Z,54.78
2023-04-07T22:59:04.975Z,58.50
2023-04-07T23:01:50.116Z,55.47
2023-04-07T23:04:35.099Z,58.90
2023-04-07T23:07:19.978Z,65.47
2023-04-07T23:10:07.142Z,70.60
2023-04-07T23:12:55.818Z,73.65
2023-04-07T23:15:40.707Z,78.05
2023-04-07T23:18:25.390Z,76.32
2023-04-07T23:21:11.663Z,80.60
2023-04-07T23:23:56.390Z,83.63
2023-04-07T23:26:41.369Z,76.60
2023-04-07T23:32:11.465Z,65.70
2023-04-07T23:34:56.228Z,66.65
2023-04-07T23:37:41.694Z,74.45
2023-04-07T23:40:26.242Z,65.63
2023-04-07T23:43:11.291Z,57.72
2023-04-07T23:45:56.213Z,63.38
2023-04-07T23:48:41.727Z,63.97
2023-04-07T23:51:27.579Z,54.58
2023-04-07T23:54:12.186Z,62.53
2023-04-07T23:56:57.697Z,58.60
2023-04-07T23:59:42.140Z,57.53
